sensor_id;sensor_type;location;lat;lon;timestamp;P1;durP1;ratioP1;P2;durP2;ratioP2
4724;SDS011;2376;53.544;10.226;2023-04-06T00:00:08;3.67;;;3.07;;
4724;SDS011;2376;53.544;10.226;2023-04-06T00:02:36;4.63;;;2.90;;
4724;SDS011;2376;53.544;10.226;2023-04-06T00:05:03;3.50;;;2.70;;
4724;SDS011;2376;53.544;10.226;2023-04-06T00:07:32;3.60;;;3.30;;
4724;SDS011;2376;53.544;10.226;2023-04-06T00:10:00;5.83;;;3.50;;
4724;SDS011;2376;53.544;10.226;2023-04-06T00:12:27;4.50;;;3.20;;
4724;SDS011;2376;53.544;10.226;2023-04-06T00:14:53;5.70;;;3.13;;
4724;SDS011;2376;53.544;10.226;2023-04-06T00:17:20;5.30;;;3.50;;
4724;SDS011;2376;53.544;10.226;2023-04-06T00:19:47;4.20;;;3.90;;
4724;SDS011;2376;53.544;10.226;2023-04-06T00:22:14;3.77;;;3.57;;
4724;SDS011;2376;53.544;10.226;2023-04-06T00:24:42;2.80;;;2.20;;
4724;SDS011;2376;53.544;10.226;2023-04-06T00:27:09;4.53;;;3.33;;
4724;SDS011;2376;53.544;10.226;2023-04-06T00:29:35;4.20;;;3.37;;
4724;SDS011;2376;53.544;10.226;2023-04-06T00:32:03;3.70;;;3.43;;
4724;SDS011;2376;53.544;10.226;2023-04-06T00:34:30;11.73;;;4.23;;
4724;SDS011;2376;53.544;10.226;2023-04-06T00:36:57;3.40;;;3.10;;
4724;SDS011;2376;53.544;10.226;2023-04-06T00:39:24;4.13;;;3.50;;
4724;SDS011;2376;53.544;10.226;2023-04-06T00:41:52;3.40;;;3.10;;
4724;SDS011;2376;53.544;10.226;2023-04-06T00:44:20;2.83;;;2.67;;
4724;SDS011;2376;53.544;10.226;2023-04-06T00:46:47;5.40;;;3.37;;
4724;SDS011;2376;53.544;10.226;2023-04-06T00:49:14;2.77;;;2.50;;
4724;SDS011;2376;53.544;10.226;2023-04-06T00:51:42;3.20;;;2.97;;
4724;SDS011;2376;53.544;10.226;2023-04-06T00:54:08;2.70;;;2.50;;
4724;SDS011;2376;53.544;10.226;2023-04-06T00:56:35;2.53;;;2.43;;
4724;SDS011;2376;53.544;10.226;2023-04-06T00:59:03;3.10;;;2.80;;
4724;SDS011;2376;53.544;10.226;2023-04-06T01:01:30;3.53;;;3.30;;
4724;SDS011;2376;53.544;10.226;2023-04-06T01:03:58;7.73;;;2.87;;
4724;SDS011;2376;53.544;10.226;2023-04-06T01:06:25;3.07;;;2.87;;
4724;SDS011;2376;53.544;10.226;2023-04-06T01:08:52;4.00;;;3.60;;
4724;SDS011;2376;53.544;10.226;2023-04-06T01:11:19;3.50;;;3.20;;
4724;SDS011;2376;53.544;10.226;2023-04-06T01:13:46;3.10;;;2.90;;
4724;SDS011;2376;53.544;10.226;2023-04-06T01:16:14;3.57;;;3.37;;
4724;SDS011;2376;53.544;10.226;2023-04-06T01:18:41;3.00;;;2.80;;
4724;SDS011;2376;53.544;10.226;2023-04-06T01:21:08;3.13;;;2.93;;
4724;SDS011;2376;53.544;10.226;2023-04-06T01:23:41;3.40;;;3.20;;
4724;SDS011;2376;53.544;10.226;2023-04-06T01:26:09;3.83;;;2.90;;
4724;SDS011;2376;53.544;10.226;2023-04-06T01:28:36;3.13;;;2.93;;
4724;SDS011;2376;53.544;10.226;2023-04-06T01:31:03;3.20;;;2.97;;
4724;SDS011;2376;53.544;10.226;2023-04-06T01:33:30;3.20;;;2.90;;
4724;SDS011;2376;53.544;10.226;2023-04-06T01:35:57;3.53;;;3.27;;
4724;SDS011;2376;53.544;10.226;2023-04-06T01:38:23;2.87;;;2.67;;
4724;SDS011;2376;53.544;10.226;2023-04-06T01:40:52;2.90;;;2.70;;
4724;SDS011;2376;53.544;10.226;2023-04-06T01:43:20;2.97;;;2.73;;
4724;SDS011;2376;53.544;10.226;2023-04-06T01:45:47;3.40;;;3.20;;
4724;SDS011;2376;53.544;10.226;2023-04-06T01:48:14;4.63;;;3.47;;
4724;SDS011;2376;53.544;10.226;2023-04-06T01:50:41;3.20;;;3.00;;
4724;SDS011;2376;53.544;10.226;2023-04-06T01:53:08;2.93;;;2.73;;
4724;SDS011;2376;53.544;10.226;2023-04-06T01:55:35;2.87;;;2.70;;
4724;SDS011;2376;53.544;10.226;2023-04-06T01:58:04;3.03;;;2.83;;
4724;SDS011;2376;53.544;10.226;2023-04-06T02:00:30;3.30;;;3.00;;
4724;SDS011;2376;53.544;10.226;2023-04-06T02:02:57;3.83;;;2.83;;
4724;SDS011;2376;53.544;10.226;2023-04-06T02:05:24;5.57;;;2.87;;
4724;SDS011;2376;53.544;10.226;2023-04-06T02:07:51;2.93;;;2.73;;
4724;SDS011;2376;53.544;10.226;2023-04-06T02:10:18;2.90;;;2.77;;
4724;SDS011;2376;53.544;10.226;2023-04-06T02:12:45;3.10;;;2.53;;
4724;SDS011;2376;53.544;10.226;2023-04-06T02:15:13;3.47;;;3.17;;
4724;SDS011;2376;53.544;10.226;2023-04-06T02:17:40;3.00;;;2.87;;
4724;SDS011;2376;53.544;10.226;2023-04-06T02:20:07;2.87;;;2.67;;
4724;SDS011;2376;53.544;10.226;2023-04-06T02:22:35;4.97;;;2.43;;
4724;SDS011;2376;53.544;10.226;2023-04-06T02:25:02;3.77;;;3.40;;
4724;SDS011;2376;53.544;10.226;2023-04-06T02:27:29;2.83;;;2.60;;
4724;SDS011;2376;53.544;10.226;2023-04-06T02:29:56;2.57;;;2.37;;
4724;SDS011;2376;53.544;10.226;2023-04-06T02:32:24;3.93;;;3.63;;
4724;SDS011;2376;53.544;10.226;2023-04-06T02:34:51;3.97;;;3.10;;
4724;SDS011;2376;53.544;10.226;2023-04-06T02:37:18;2.80;;;2.60;;
4724;SDS011;2376;53.544;10.226;2023-04-06T02:39:45;3.07;;;2.87;;
4724;SDS011;2376;53.544;10.226;2023-04-06T02:42:11;3.10;;;2.90;;
4724;SDS011;2376;53.544;10.226;2023-04-06T02:44:40;10.40;;;3.80;;
4724;SDS011;2376;53.544;10.226;2023-04-06T02:47:07;3.10;;;2.83;;
4724;SDS011;2376;53.544;10.226;2023-04-06T02:49:35;3.40;;;3.20;;
4724;SDS011;2376;53.544;10.226;2023-04-06T02:52:02;4.00;;;3.60;;
4724;SDS011;2376;53.544;10.226;2023-04-06T02:54:29;3.53;;;2.80;;
4724;SDS011;2376;53.544;10.226;2023-04-06T02:56:56;3.77;;;2.73;;
4724;SDS011;2376;53.544;10.226;2023-04-06T02:59:22;2.43;;;2.33;;
4724;SDS011;2376;53.544;10.226;2023-04-06T03:01:49;2.50;;;2.40;;
4724;SDS011;2376;53.544;10.226;2023-04-06T03:04:16;4.70;;;3.70;;
4724;SDS011;2376;53.544;10.226;2023-04-06T03:06:44;3.50;;;3.17;;
4724;SDS011;2376;53.544;10.226;2023-04-06T03:09:11;2.83;;;2.63;;
4724;SDS011;2376;53.544;10.226;2023-04-06T03:11:39;3.93;;;3.63;;
4724;SDS011;2376;53.544;10.226;2023-04-06T03:14:05;3.33;;;3.23;;
4724;SDS011;2376;53.544;10.226;2023-04-06T03:16:32;3.40;;;3.17;;
4724;SDS011;2376;53.544;10.226;2023-04-06T03:18:59;3.97;;;3.47;;
4724;SDS011;2376;53.544;10.226;2023-04-06T03:21:26;4.90;;;3.77;;
4724;SDS011;2376;53.544;10.226;2023-04-06T03:23:54;3.37;;;3.17;;
4724;SDS011;2376;53.544;10.226;2023-04-06T03:26:21;3.40;;;2.67;;
4724;SDS011;2376;53.544;10.226;2023-04-06T03:28:48;4.23;;;3.40;;
4724;SDS011;2376;53.544;10.226;2023-04-06T03:31:15;2.90;;;2.70;;
4724;SDS011;2376;53.544;10.226;2023-04-06T03:33:41;3.73;;;3.47;;
4724;SDS011;2376;53.544;10.226;2023-04-06T03:36:08;4.03;;;3.70;;
4724;SDS011;2376;53.544;10.226;2023-04-06T03:38:35;4.33;;;3.50;;
4724;SDS011;2376;53.544;10.226;2023-04-06T03:41:04;3.73;;;3.40;;
4724;SDS011;2376;53.544;10.226;2023-04-06T03:43:30;3.53;;;3.33;;
4724;SDS011;2376;53.544;10.226;2023-04-06T03:45:57;3.53;;;3.23;;
4724;SDS011;2376;53.544;10.226;2023-04-06T03:48:24;4.50;;;3.60;;
4724;SDS011;2376;53.544;10.226;2023-04-06T03:50:51;3.70;;;3.40;;
4724;SDS011;2376;53.544;10.226;2023-04-06T03:53:17;4.63;;;4.30;;
4724;SDS011;2376;53.544;10.226;2023-04-06T03:55:44;4.77;;;4.30;;
4724;SDS011;2376;53.544;10.226;2023-04-06T03:58:13;4.23;;;3.93;;
4724;SDS011;2376;53.544;10.226;2023-04-06T04:00:40;4.30;;;4.00;;
4724;SDS011;2376;53.544;10.226;2023-04-06T04:03:07;4.03;;;3.73;;
4724;SDS011;2376;53.544;10.226;2023-04-06T04:05:33;4.87;;;4.37;;
4724;SDS011;2376;53.544;10.226;2023-04-06T04:08:00;5.50;;;4.50;;
4724;SDS011;2376;53.544;10.226;2023-04-06T04:10:27;3.73;;;3.50;;
4724;SDS011;2376;53.544;10.226;2023-04-06T04:12:54;3.70;;;3.33;;
4724;SDS011;2376;53.544;10.226;2023-04-06T04:15:22;5.73;;;4.60;;
4724;SDS011;2376;53.544;10.226;2023-04-06T04:17:49;6.20;;;5.60;;
4724;SDS011;2376;53.544;10.226;2023-04-06T04:20:16;5.70;;;5.00;;
4724;SDS011;2376;53.544;10.226;2023-04-06T04:22:43;5.63;;;4.03;;
4724;SDS011;2376;53.544;10.226;2023-04-06T04:25:09;4.73;;;4.40;;
4724;SDS011;2376;53.544;10.226;2023-04-06T04:27:36;5.27;;;4.37;;
4724;SDS011;2376;53.544;10.226;2023-04-06T04:30:03;5.07;;;4.50;;
4724;SDS011;2376;53.544;10.226;2023-04-06T04:32:32;6.50;;;5.90;;
4724;SDS011;2376;53.544;10.226;2023-04-06T04:34:59;5.73;;;4.97;;
4724;SDS011;2376;53.544;10.226;2023-04-06T04:37:26;6.57;;;4.83;;
4724;SDS011;2376;53.544;10.226;2023-04-06T04:39:53;5.37;;;4.87;;
4724;SDS011;2376;53.544;10.226;2023-04-06T04:42:19;4.97;;;4.53;;
4724;SDS011;2376;53.544;10.226;2023-04-06T04:44:47;5.07;;;4.57;;
4724;SDS011;2376;53.544;10.226;2023-04-06T04:47:13;8.27;;;4.37;;
4724;SDS011;2376;53.544;10.226;2023-04-06T04:49:41;5.40;;;4.87;;
4724;SDS011;2376;53.544;10.226;2023-04-06T04:52:08;5.30;;;4.90;;
4724;SDS011;2376;53.544;10.226;2023-04-06T04:54:35;6.37;;;5.33;;
4724;SDS011;2376;53.544;10.226;2023-04-06T04:57:02;6.30;;;5.70;;
4724;SDS011;2376;53.544;10.226;2023-04-06T04:59:29;6.93;;;5.20;;
4724;SDS011;2376;53.544;10.226;2023-04-06T05:01:56;7.57;;;6.00;;
4724;SDS011;2376;53.544;10.226;2023-04-06T05:04:22;6.40;;;5.80;;
4724;SDS011;2376;53.544;10.226;2023-04-06T05:06:51;5.33;;;4.77;;
4724;SDS011;2376;53.544;10.226;2023-04-06T05:09:29;6.10;;;5.13;;
4724;SDS011;2376;53.544;10.226;2023-04-06T05:11:56;8.20;;;6.07;;
4724;SDS011;2376;53.544;10.226;2023-04-06T05:14:23;6.43;;;5.60;;
4724;SDS011;2376;53.544;10.226;2023-04-06T05:16:50;6.70;;;5.40;;
4724;SDS011;2376;53.544;10.226;2023-04-06T05:19:17;8.40;;;5.47;;
4724;SDS011;2376;53.544;10.226;2023-04-06T05:21:44;5.93;;;5.43;;
4724;SDS011;2376;53.544;10.226;2023-04-06T05:24:12;5.97;;;5.47;;
4724;SDS011;2376;53.544;10.226;2023-04-06T05:26:39;6.47;;;5.93;;
4724;SDS011;2376;53.544;10.226;2023-04-06T05:29:06;9.30;;;5.80;;
4724;SDS011;2376;53.544;10.226;2023-04-06T05:31:33;5.73;;;5.23;;
4724;SDS011;2376;53.544;10.226;2023-04-06T05:34:00;6.17;;;5.63;;
4724;SDS011;2376;53.544;10.226;2023-04-06T05:36:27;7.30;;;5.97;;
4724;SDS011;2376;53.544;10.226;2023-04-06T05:38:54;6.63;;;5.67;;
4724;SDS011;2376;53.544;10.226;2023-04-06T05:41:22;7.50;;;5.80;;
4724;SDS011;2376;53.544;10.226;2023-04-06T05:43:49;7.63;;;5.97;;
4724;SDS011;2376;53.544;10.226;2023-04-06T05:46:16;9.03;;;5.70;;
4724;SDS011;2376;53.544;10.226;2023-04-06T05:48:44;8.20;;;5.00;;
4724;SDS011;2376;53.544;10.226;2023-04-06T05:51:11;7.33;;;6.10;;
4724;SDS011;2376;53.544;10.226;2023-04-06T05:53:38;6.07;;;5.53;;
4724;SDS011;2376;53.544;10.226;2023-04-06T05:56:05;6.93;;;6.20;;
4724;SDS011;2376;53.544;10.226;2023-04-06T05:58:34;9.90;;;6.73;;
4724;SDS011;2376;53.544;10.226;2023-04-06T06:01:01;10.30;;;6.53;;
4724;SDS011;2376;53.544;10.226;2023-04-06T06:03:29;6.87;;;6.27;;
4724;SDS011;2376;53.544;10.226;2023-04-06T06:05:59;5.90;;;5.40;;
4724;SDS011;2376;53.544;10.226;2023-04-06T06:08:26;6.87;;;6.27;;
4724;SDS011;2376;53.544;10.226;2023-04-06T06:10:53;15.50;;;7.10;;
4724;SDS011;2376;53.544;10.226;2023-04-06T06:13:20;6.47;;;5.87;;
4724;SDS011;2376;53.544;10.226;2023-04-06T06:15:49;6.53;;;5.27;;
4724;SDS011;2376;53.544;10.226;2023-04-06T06:18:16;6.87;;;6.10;;
4724;SDS011;2376;53.544;10.226;2023-04-06T06:20:43;6.80;;;4.90;;
4724;SDS011;2376;53.544;10.226;2023-04-06T06:23:10;6.97;;;6.27;;
4724;SDS011;2376;53.544;10.226;2023-04-06T06:25:37;6.97;;;6.20;;
4724;SDS011;2376;53.544;10.226;2023-04-06T06:28:04;7.03;;;6.50;;
4724;SDS011;2376;53.544;10.226;2023-04-06T06:30:30;8.53;;;7.67;;
4724;SDS011;2376;53.544;10.226;2023-04-06T06:32:59;6.83;;;6.13;;
4724;SDS011;2376;53.544;10.226;2023-04-06T06:35:25;6.83;;;6.20;;
4724;SDS011;2376;53.544;10.226;2023-04-06T06:37:52;6.37;;;5.87;;
4724;SDS011;2376;53.544;10.226;2023-04-06T06:40:19;7.20;;;6.33;;
4724;SDS011;2376;53.544;10.226;2023-04-06T06:42:48;6.60;;;6.07;;
4724;SDS011;2376;53.544;10.226;2023-04-06T06:45:16;7.60;;;6.33;;
4724;SDS011;2376;53.544;10.226;2023-04-06T06:47:43;7.17;;;6.40;;
4724;SDS011;2376;53.544;10.226;2023-04-06T06:53:22;6.97;;;6.23;;
4724;SDS011;2376;53.544;10.226;2023-04-06T06:55:50;7.50;;;6.80;;
4724;SDS011;2376;53.544;10.226;2023-04-06T06:58:17;8.83;;;7.20;;
4724;SDS011;2376;53.544;10.226;2023-04-06T07:00:45;7.60;;;6.90;;
4724;SDS011;2376;53.544;10.226;2023-04-06T07:03:12;9.27;;;6.27;;
4724;SDS011;2376;53.544;10.226;2023-04-06T07:05:38;8.67;;;6.77;;
4724;SDS011;2376;53.544;10.226;2023-04-06T07:08:13;7.10;;;6.40;;
4724;SDS011;2376;53.544;10.226;2023-04-06T07:10:42;7.27;;;6.67;;
4724;SDS011;2376;53.544;10.226;2023-04-06T07:13:09;6.67;;;6.07;;
4724;SDS011;2376;53.544;10.226;2023-04-06T07:15:36;6.70;;;6.10;;
4724;SDS011;2376;53.544;10.226;2023-04-06T07:18:03;6.77;;;6.10;;
4724;SDS011;2376;53.544;10.226;2023-04-06T07:20:30;7.07;;;6.57;;
4724;SDS011;2376;53.544;10.226;2023-04-06T07:22:56;6.80;;;5.47;;
4724;SDS011;2376;53.544;10.226;2023-04-06T07:25:23;7.07;;;6.40;;
4724;SDS011;2376;53.544;10.226;2023-04-06T07:27:51;8.03;;;6.13;;
4724;SDS011;2376;53.544;10.226;2023-04-06T07:30:18;6.10;;;5.60;;
4724;SDS011;2376;53.544;10.226;2023-04-06T07:32:48;6.43;;;5.90;;
4724;SDS011;2376;53.544;10.226;2023-04-06T07:35:14;6.20;;;5.60;;
4724;SDS011;2376;53.544;10.226;2023-04-06T07:37:41;7.67;;;6.07;;
4724;SDS011;2376;53.544;10.226;2023-04-06T07:40:08;5.47;;;5.07;;
4724;SDS011;2376;53.544;10.226;2023-04-06T07:42:35;4.73;;;4.43;;
4724;SDS011;2376;53.544;10.226;2023-04-06T07:45:04;5.70;;;5.20;;
4724;SDS011;2376;53.544;10.226;2023-04-06T07:47:32;5.23;;;4.67;;
4724;SDS011;2376;53.544;10.226;2023-04-06T07:49:59;7.63;;;4.83;;
4724;SDS011;2376;53.544;10.226;2023-04-06T07:52:26;5.03;;;4.73;;
4724;SDS011;2376;53.544;10.226;2023-04-06T07:54:53;8.37;;;4.80;;
4724;SDS011;2376;53.544;10.226;2023-04-06T07:57:19;4.63;;;4.20;;
4724;SDS011;2376;53.544;10.226;2023-04-06T07:59:46;6.70;;;6.10;;
4724;SDS011;2376;53.544;10.226;2023-04-06T08:02:14;4.60;;;4.20;;
4724;SDS011;2376;53.544;10.226;2023-04-06T08:04:42;4.43;;;4.13;;
4724;SDS011;2376;53.544;10.226;2023-04-06T08:07:09;6.20;;;4.23;;
4724;SDS011;2376;53.544;10.226;2023-04-06T08:09:36;5.27;;;4.10;;
4724;SDS011;2376;53.544;10.226;2023-04-06T08:12:03;3.93;;;3.63;;
4724;SDS011;2376;53.544;10.226;2023-04-06T08:14:30;5.70;;;4.10;;
4724;SDS011;2376;53.544;10.226;2023-04-06T08:16:57;4.97;;;4.10;;
4724;SDS011;2376;53.544;10.226;2023-04-06T08:19:25;4.20;;;3.80;;
4724;SDS011;2376;53.544;10.226;2023-04-06T08:21:52;4.67;;;4.27;;
4724;SDS011;2376;53.544;10.226;2023-04-06T08:24:18;4.43;;;3.97;;
4724;SDS011;2376;53.544;10.226;2023-04-06T08:26:45;4.07;;;3.67;;
4724;SDS011;2376;53.544;10.226;2023-04-06T08:29:12;6.00;;;4.47;;
4724;SDS011;2376;53.544;10.226;2023-04-06T08:31:39;3.97;;;3.37;;
4724;SDS011;2376;53.544;10.226;2023-04-06T08:34:06;5.80;;;3.60;;
4724;SDS011;2376;53.544;10.226;2023-04-06T08:36:34;4.90;;;4.10;;
4724;SDS011;2376;53.544;10.226;2023-04-06T08:39:01;5.07;;;4.20;;
4724;SDS011;2376;53.544;10.226;2023-04-06T08:41:28;6.00;;;3.43;;
4724;SDS011;2376;53.544;10.226;2023-04-06T08:43:56;4.80;;;3.50;;
4724;SDS011;2376;53.544;10.226;2023-04-06T08:46:24;3.47;;;3.27;;
4724;SDS011;2376;53.544;10.226;2023-04-06T08:48:54;5.07;;;4.00;;
4724;SDS011;2376;53.544;10.226;2023-04-06T08:51:22;6.30;;;4.27;;
4724;SDS011;2376;53.544;10.226;2023-04-06T08:53:51;4.00;;;3.53;;
4724;SDS011;2376;53.544;10.226;2023-04-06T08:56:20;3.70;;;3.40;;
4724;SDS011;2376;53.544;10.226;2023-04-06T08:58:47;5.13;;;3.70;;
4724;SDS011;2376;53.544;10.226;2023-04-06T09:01:16;4.57;;;3.47;;
4724;SDS011;2376;53.544;10.226;2023-04-06T09:03:46;5.10;;;3.50;;
4724;SDS011;2376;53.544;10.226;2023-04-06T09:06:15;4.17;;;3.83;;
4724;SDS011;2376;53.544;10.226;2023-04-06T09:08:42;3.90;;;3.60;;
4724;SDS011;2376;53.544;10.226;2023-04-06T09:11:10;4.70;;;4.23;;
4724;SDS011;2376;53.544;10.226;2023-04-06T09:13:46;3.97;;;3.60;;
4724;SDS011;2376;53.544;10.226;2023-04-06T09:16:14;6.73;;;3.70;;
4724;SDS011;2376;53.544;10.226;2023-04-06T09:18:41;4.33;;;3.37;;
4724;SDS011;2376;53.544;10.226;2023-04-06T09:21:08;3.53;;;3.33;;
4724;SDS011;2376;53.544;10.226;2023-04-06T09:23:36;3.40;;;3.20;;
4724;SDS011;2376;53.544;10.226;2023-04-06T09:26:07;3.87;;;3.60;;
4724;SDS011;2376;53.544;10.226;2023-04-06T09:28:46;3.40;;;3.20;;
4724;SDS011;2376;53.544;10.226;2023-04-06T09:31:16;3.10;;;2.80;;
4724;SDS011;2376;53.544;10.226;2023-04-06T09:33:48;4.23;;;3.73;;
4724;SDS011;2376;53.544;10.226;2023-04-06T09:36:15;3.93;;;3.40;;
4724;SDS011;2376;53.544;10.226;2023-04-06T09:38:51;3.30;;;3.10;;
4724;SDS011;2376;53.544;10.226;2023-04-06T09:41:23;4.00;;;3.60;;
4724;SDS011;2376;53.544;10.226;2023-04-06T09:43:52;3.93;;;3.60;;
4724;SDS011;2376;53.544;10.226;2023-04-06T09:46:28;3.97;;;3.63;;
4724;SDS011;2376;53.544;10.226;2023-04-06T09:48:57;3.87;;;3.57;;
4724;SDS011;2376;53.544;10.226;2023-04-06T09:51:25;4.10;;;3.80;;
4724;SDS011;2376;53.544;10.226;2023-04-06T09:53:55;3.60;;;3.30;;
4724;SDS011;2376;53.544;10.226;2023-04-06T09:56:26;4.13;;;3.73;;
4724;SDS011;2376;53.544;10.226;2023-04-06T09:59:02;3.67;;;3.37;;
4724;SDS011;2376;53.544;10.226;2023-04-06T10:01:34;4.00;;;3.57;;
4724;SDS011;2376;53.544;10.226;2023-04-06T10:04:05;3.37;;;3.13;;
4724;SDS011;2376;53.544;10.226;2023-04-06T10:06:43;4.20;;;3.30;;
4724;SDS011;2376;53.544;10.226;2023-04-06T10:09:13;3.70;;;3.30;;
4724;SDS011;2376;53.544;10.226;2023-04-06T10:11:41;3.50;;;3.20;;
4724;SDS011;2376;53.544;10.226;2023-04-06T10:14:10;3.43;;;3.23;;
4724;SDS011;2376;53.544;10.226;2023-04-06T10:16:37;3.10;;;2.90;;
4724;SDS011;2376;53.544;10.226;2023-04-06T10:19:06;4.03;;;3.73;;
4724;SDS011;2376;53.544;10.226;2023-04-06T10:21:36;4.20;;;3.90;;
4724;SDS011;2376;53.544;10.226;2023-04-06T10:24:06;3.93;;;3.60;;
4724;SDS011;2376;53.544;10.226;2023-04-06T10:26:37;5.00;;;4.50;;
4724;SDS011;2376;53.544;10.226;2023-04-06T10:29:03;4.03;;;3.73;;
4724;SDS011;2376;53.544;10.226;2023-04-06T10:31:32;4.20;;;3.80;;
4724;SDS011;2376;53.544;10.226;2023-04-06T10:33:59;5.43;;;4.23;;
4724;SDS011;2376;53.544;10.226;2023-04-06T10:36:28;4.50;;;4.10;;
4724;SDS011;2376;53.544;10.226;2023-04-06T10:38:59;4.50;;;4.10;;
4724;SDS011;2376;53.544;10.226;2023-04-06T10:41:33;4.80;;;4.27;;
4724;SDS011;2376;53.544;10.226;2023-04-06T10:44:01;4.90;;;4.50;;
4724;SDS011;2376;53.544;10.226;2023-04-06T10:46:29;5.47;;;4.47;;
4724;SDS011;2376;53.544;10.226;2023-04-06T10:49:09;6.03;;;4.50;;
4724;SDS011;2376;53.544;10.226;2023-04-06T10:51:37;4.10;;;3.60;;
4724;SDS011;2376;53.544;10.226;2023-04-06T10:54:05;5.77;;;4.90;;
4724;SDS011;2376;53.544;10.226;2023-04-06T10:56:33;5.20;;;4.80;;
4724;SDS011;2376;53.544;10.226;2023-04-06T10:59:03;5.60;;;5.10;;
4724;SDS011;2376;53.544;10.226;2023-04-06T11:01:31;7.53;;;4.23;;
4724;SDS011;2376;53.544;10.226;2023-04-06T11:04:00;5.77;;;5.27;;
4724;SDS011;2376;53.544;10.226;2023-04-06T11:06:28;5.60;;;5.10;;
4724;SDS011;2376;53.544;10.226;2023-04-06T11:08:57;6.27;;;5.00;;
4724;SDS011;2376;53.544;10.226;2023-04-06T11:11:25;5.40;;;5.00;;
4724;SDS011;2376;53.544;10.226;2023-04-06T11:13:53;5.70;;;5.10;;
4724;SDS011;2376;53.544;10.226;2023-04-06T11:16:21;5.33;;;4.83;;
4724;SDS011;2376;53.544;10.226;2023-04-06T11:18:49;5.40;;;5.00;;
4724;SDS011;2376;53.544;10.226;2023-04-06T11:21:31;6.17;;;5.40;;
4724;SDS011;2376;53.544;10.226;2023-04-06T11:24:05;11.33;;;6.00;;
4724;SDS011;2376;53.544;10.226;2023-04-06T11:26:36;9.13;;;5.67;;
4724;SDS011;2376;53.544;10.226;2023-04-06T11:29:07;5.90;;;5.40;;
4724;SDS011;2376;53.544;10.226;2023-04-06T11:31:37;6.93;;;5.70;;
4724;SDS011;2376;53.544;10.226;2023-04-06T11:34:08;6.60;;;5.20;;
4724;SDS011;2376;53.544;10.226;2023-04-06T11:36:40;5.77;;;5.27;;
4724;SDS011;2376;53.544;10.226;2023-04-06T11:39:08;5.90;;;5.50;;
4724;SDS011;2376;53.544;10.226;2023-04-06T11:41:35;6.73;;;6.20;;
4724;SDS011;2376;53.544;10.226;2023-04-06T11:44:02;6.60;;;5.90;;
4724;SDS011;2376;53.544;10.226;2023-04-06T11:46:29;7.67;;;6.37;;
4724;SDS011;2376;53.544;10.226;2023-04-06T11:48:57;6.43;;;5.93;;
4724;SDS011;2376;53.544;10.226;2023-04-06T11:51:25;9.00;;;6.40;;
4724;SDS011;2376;53.544;10.226;2023-04-06T11:53:54;7.33;;;6.63;;
4724;SDS011;2376;53.544;10.226;2023-04-06T11:56:24;7.47;;;6.80;;
4724;SDS011;2376;53.544;10.226;2023-04-06T11:58:52;8.70;;;7.10;;
4724;SDS011;2376;53.544;10.226;2023-04-06T12:01:20;6.27;;;5.77;;
4724;SDS011;2376;53.544;10.226;2023-04-06T12:03:47;6.87;;;6.13;;
4724;SDS011;2376;53.544;10.226;2023-04-06T12:06:15;7.67;;;6.30;;
4724;SDS011;2376;53.544;10.226;2023-04-06T12:08:41;6.80;;;6.30;;
4724;SDS011;2376;53.544;10.226;2023-04-06T12:11:11;6.87;;;6.27;;
4724;SDS011;2376;53.544;10.226;2023-04-06T12:13:37;6.83;;;6.23;;
4724;SDS011;2376;53.544;10.226;2023-04-06T12:16:04;6.00;;;5.50;;
4724;SDS011;2376;53.544;10.226;2023-04-06T12:18:31;6.60;;;6.07;;
4724;SDS011;2376;53.544;10.226;2023-04-06T12:20:58;7.93;;;6.00;;
4724;SDS011;2376;53.544;10.226;2023-04-06T12:23:25;7.60;;;5.77;;
4724;SDS011;2376;53.544;10.226;2023-04-06T12:25:52;7.30;;;6.63;;
4724;SDS011;2376;53.544;10.226;2023-04-06T12:28:21;8.27;;;7.47;;
4724;SDS011;2376;53.544;10.226;2023-04-06T12:30:51;8.60;;;7.77;;
4724;SDS011;2376;53.544;10.226;2023-04-06T12:33:19;7.33;;;6.70;;
4724;SDS011;2376;53.544;10.226;2023-04-06T12:35:46;6.17;;;5.70;;
4724;SDS011;2376;53.544;10.226;2023-04-06T12:38:13;8.80;;;6.87;;
4724;SDS011;2376;53.544;10.226;2023-04-06T12:40:41;7.77;;;7.00;;
4724;SDS011;2376;53.544;10.226;2023-04-06T12:43:07;7.00;;;6.30;;
4724;SDS011;2376;53.544;10.226;2023-04-06T12:45:36;6.13;;;5.60;;
4724;SDS011;2376;53.544;10.226;2023-04-06T12:48:03;7.60;;;6.20;;
4724;SDS011;2376;53.544;10.226;2023-04-06T12:50:30;11.43;;;6.20;;
4724;SDS011;2376;53.544;10.226;2023-04-06T12:52:57;8.07;;;5.83;;
4724;SDS011;2376;53.544;10.226;2023-04-06T12:55:24;7.57;;;6.67;;
4724;SDS011;2376;53.544;10.226;2023-04-06T12:57:51;7.30;;;6.60;;
4724;SDS011;2376;53.544;10.226;2023-04-06T13:00:18;6.30;;;5.77;;
4724;SDS011;2376;53.544;10.226;2023-04-06T13:02:47;7.20;;;6.30;;
4724;SDS011;2376;53.544;10.226;2023-04-06T13:05:14;7.13;;;6.43;;
4724;SDS011;2376;53.544;10.226;2023-04-06T13:07:43;8.87;;;6.63;;
4724;SDS011;2376;53.544;10.226;2023-04-06T13:10:11;7.40;;;6.70;;
4724;SDS011;2376;53.544;10.226;2023-04-06T13:12:38;7.27;;;6.53;;
4724;SDS011;2376;53.544;10.226;2023-04-06T13:15:05;7.30;;;6.60;;
4724;SDS011;2376;53.544;10.226;2023-04-06T13:17:33;6.80;;;6.30;;
4724;SDS011;2376;53.544;10.226;2023-04-06T13:20:01;6.57;;;5.90;;
4724;SDS011;2376;53.544;10.226;2023-04-06T13:22:28;6.10;;;5.47;;
4724;SDS011;2376;53.544;10.226;2023-04-06T13:24:55;6.10;;;5.70;;
4724;SDS011;2376;53.544;10.226;2023-04-06T13:27:21;6.13;;;5.60;;
4724;SDS011;2376;53.544;10.226;2023-04-06T13:29:48;5.50;;;5.00;;
4724;SDS011;2376;53.544;10.226;2023-04-06T13:32:15;5.40;;;5.00;;
4724;SDS011;2376;53.544;10.226;2023-04-06T13:34:42;6.83;;;6.23;;
4724;SDS011;2376;53.544;10.226;2023-04-06T13:37:11;6.73;;;6.13;;
4724;SDS011;2376;53.544;10.226;2023-04-06T13:39:38;9.13;;;6.90;;
4724;SDS011;2376;53.544;10.226;2023-04-06T13:42:05;7.17;;;6.57;;
4724;SDS011;2376;53.544;10.226;2023-04-06T13:44:32;7.47;;;6.47;;
4724;SDS011;2376;53.544;10.226;2023-04-06T13:46:59;8.37;;;6.83;;
4724;SDS011;2376;53.544;10.226;2023-04-06T13:49:26;7.37;;;6.70;;
4724;SDS011;2376;53.544;10.226;2023-04-06T13:51:53;7.20;;;6.60;;
4724;SDS011;2376;53.544;10.226;2023-04-06T13:54:21;7.40;;;6.80;;
4724;SDS011;2376;53.544;10.226;2023-04-06T13:56:47;7.40;;;6.70;;
4724;SDS011;2376;53.544;10.226;2023-04-06T13:59:14;7.33;;;6.73;;
4724;SDS011;2376;53.544;10.226;2023-04-06T14:01:41;7.03;;;6.33;;
4724;SDS011;2376;53.544;10.226;2023-04-06T14:04:08;8.23;;;5.57;;
4724;SDS011;2376;53.544;10.226;2023-04-06T14:06:36;7.53;;;6.73;;
4724;SDS011;2376;53.544;10.226;2023-04-06T14:09:03;7.90;;;6.20;;
4724;SDS011;2376;53.544;10.226;2023-04-06T14:11:31;6.73;;;6.23;;
4724;SDS011;2376;53.544;10.226;2023-04-06T14:13:58;7.80;;;7.10;;
4724;SDS011;2376;53.544;10.226;2023-04-06T14:16:25;7.30;;;6.60;;
4724;SDS011;2376;53.544;10.226;2023-04-06T14:18:52;7.40;;;6.80;;
4724;SDS011;2376;53.544;10.226;2023-04-06T14:21:20;9.80;;;8.00;;
4724;SDS011;2376;53.544;10.226;2023-04-06T14:23:46;8.50;;;7.57;;
4724;SDS011;2376;53.544;10.226;2023-04-06T14:26:13;7.67;;;6.97;;
4724;SDS011;2376;53.544;10.226;2023-04-06T14:28:42;7.80;;;7.00;;
4724;SDS011;2376;53.544;10.226;2023-04-06T14:31:09;7.80;;;7.10;;
4724;SDS011;2376;53.544;10.226;2023-04-06T14:33:38;7.27;;;6.60;;
4724;SDS011;2376;53.544;10.226;2023-04-06T14:36:05;6.63;;;6.03;;
4724;SDS011;2376;53.544;10.226;2023-04-06T14:38:32;6.63;;;6.03;;
4724;SDS011;2376;53.544;10.226;2023-04-06T14:40:59;7.43;;;6.93;;
4724;SDS011;2376;53.544;10.226;2023-04-06T14:43:26;8.80;;;6.90;;
4724;SDS011;2376;53.544;10.226;2023-04-06T14:45:58;9.10;;;7.07;;
4724;SDS011;2376;53.544;10.226;2023-04-06T14:48:26;8.10;;;7.00;;
4724;SDS011;2376;53.544;10.226;2023-04-06T14:50:53;7.57;;;6.87;;
4724;SDS011;2376;53.544;10.226;2023-04-06T14:53:21;7.53;;;6.70;;
4724;SDS011;2376;53.544;10.226;2023-04-06T14:55:48;6.50;;;5.90;;
4724;SDS011;2376;53.544;10.226;2023-04-06T14:58:16;6.13;;;5.63;;
4724;SDS011;2376;53.544;10.226;2023-04-06T15:00:43;7.20;;;6.57;;
4724;SDS011;2376;53.544;10.226;2023-04-06T15:03:11;7.83;;;7.13;;
4724;SDS011;2376;53.544;10.226;2023-04-06T15:05:38;7.40;;;6.80;;